Time;durP1;ratioP1;P1;durP2;ratioP2;P2;SDS_P1;SDS_P2;PMS_P1;PMS_P2;Temp;Humidity;BMP_temperature;BMP_pressure;BME280_temperature;BME280_humidity;BME280_pressure;Samples;Min_cycle;Max_cycle;Signal;HPM_P1;HPM_P2
2021/08/27 00:00:01;;;;;;;20.12;11.28;;;;;;;11.96;92.53;99498.42;1763438;81;25724;-61
2021/08/27 00:02:27;;;;;;;16.73;10.60;;;;;;;11.98;92.52;99510.86;1763636;81;25760;-61
2021/08/27 00:04:54;;;;;;;15.00;11.35;;;;;;;12.00;92.54;99505.31;1763775;81;27500;-61
2021/08/27 00:07:20;;;;;;;18.55;10.65;;;;;;;12.01;92.46;99504.77;1763373;81;25776;-60
2021/08/27 00:09:47;;;;;;;16.25;11.20;;;;;;;12.03;92.51;99503.86;1763731;81;26483;-61
2021/08/27 00:12:13;;;;;;;21.02;10.63;;;;;;;12.04;92.50;99502.74;1763590;81;25695;-61
2021/08/27 00:14:40;;;;;;;17.55;10.95;;;;;;;12.06;92.53;99501.27;1763610;81;25711;-61
2021/08/27 00:17:07;;;;;;;16.48;10.45;;;;;;;12.07;92.49;99505.56;1763656;81;27579;-61
2021/08/27 00:19:33;;;;;;;16.07;11.03;;;;;;;12.09;92.45;99499.23;1763440;81;26406;-60
2021/08/27 00:22:00;;;;;;;18.12;11.45;;;;;;;12.10;92.41;99506.22;1731441;81;26478;-61
2021/08/27 00:24:26;;;;;;;15.25;11.05;;;;;;;12.10;92.25;99506.22;1763574;81;26090;-61
2021/08/27 00:26:53;;;;;;;14.33;10.63;;;;;;;12.10;92.29;99507.58;1756492;81;25845;-61
2021/08/27 00:29:19;;;;;;;20.27;10.63;;;;;;;12.11;92.31;99515.95;1763603;81;27420;-61
2021/08/27 00:31:46;;;;;;;16.93;11.05;;;;;;;12.12;92.26;99514.83;1763420;81;25719;-61
2021/08/27 00:34:12;;;;;;;17.37;10.58;;;;;;;12.14;92.28;99514.50;1763484;81;25710;-61
2021/08/27 00:36:39;;;;;;;18.02;10.65;;;;;;;12.14;92.30;99519.34;1763641;81;25755;-61
2021/08/27 00:39:05;;;;;;;16.60;10.18;;;;;;;12.15;92.29;99518.77;1763466;81;26228;-62
2021/08/27 00:41:32;;;;;;;22.32;11.90;;;;;;;12.15;92.22;99526.33;1763602;81;29535;-62
2021/08/27 00:43:58;;;;;;;18.07;11.70;;;;;;;12.14;92.21;99536.18;1763588;81;25867;-61
2021/08/27 00:46:25;;;;;;;19.17;10.80;;;;;;;12.12;92.06;99537.88;1763485;81;26481;-60
2021/08/27 00:48:51;;;;;;;15.48;10.20;;;;;;;12.13;92.18;99549.50;1763712;81;25826;-61
2021/08/27 00:51:17;;;;;;;20.70;11.38;;;;;;;12.11;92.01;99548.48;1763672;81;25748;-60
2021/08/27 00:53:44;;;;;;;16.20;10.43;;;;;;;12.11;92.08;99556.61;1763492;81;28236;-60
2021/08/27 00:56:13;;;;;;;22.65;10.40;;;;;;;12.10;91.98;99561.01;1763650;81;26377;-61
2021/08/27 00:58:39;;;;;;;20.20;10.58;;;;;;;12.08;91.93;99564.63;1763934;81;26343;-62
2021/08/27 01:01:06;;;;;;;20.23;11.50;;;;;;;12.07;92.07;99563.03;1763461;81;25732;-61
2021/08/27 01:03:32;;;;;;;17.00;10.95;;;;;;;12.04;91.92;99571.28;1763661;81;25740;-61
2021/08/27 01:06:10;;;;;;;16.12;10.95;;;;;;;12.03;91.96;99571.62;1763460;81;27318;-61
2021/08/27 01:08:45;;;;;;;20.75;11.20;;;;;;;12.00;92.01;99574.42;1763148;81;25722;-61
2021/08/27 01:11:22;;;;;;;16.42;11.33;;;;;;;11.99;92.11;99578.28;1762475;81;26374;-62
2021/08/27 01:13:56;;;;;;;15.35;10.50;;;;;;;11.97;92.22;99583.25;1762379;81;25977;-62
2021/08/27 01:16:27;;;;;;;17.10;10.80;;;;;;;11.93;92.28;99583.09;1762666;81;26375;-62
2021/08/27 01:19:25;;;;;;;17.32;10.75;;;;;;;11.95;92.47;99590.36;1763700;81;27469;-62
2021/08/27 01:22:32;;;;;;;19.27;11.22;;;;;;;11.96;92.52;99594.63;1761726;81;25916;-62
2021/08/27 01:25:00;;;;;;;15.95;11.70;;;;;;;11.97;92.60;99591.38;1763716;81;25684;-61
2021/08/27 01:27:27;;;;;;;15.83;10.85;;;;;;;11.96;92.63;99592.49;1731272;81;26420;-61
2021/08/27 01:30:13;;;;;;;19.07;10.78;;;;;;;11.96;92.71;99595.20;1763464;81;25864;-61
2021/08/27 01:33:03;;;;;;;23.22;11.85;;;;;;;11.95;92.76;99594.42;1763724;81;27323;-62
2021/08/27 01:35:32;;;;;;;16.80;10.90;;;;;;;11.95;92.81;99603.09;1763562;81;25765;-61
2021/08/27 01:38:04;;;;;;;17.70;11.35;;;;;;;11.95;93.00;99607.16;1763704;81;25715;-62
2021/08/27 01:40:31;;;;;;;17.55;10.80;;;;;;;11.97;93.12;99611.70;1731203;81;26417;-61
2021/08/27 01:43:02;;;;;;;14.03;10.93;;;;;;;11.95;92.98;99607.16;1731348;81;25719;-61
2021/08/27 01:45:30;;;;;;;17.90;10.58;;;;;;;11.96;93.07;99610.89;1763546;81;27291;-61
2021/08/27 01:47:59;;;;;;;16.95;11.28;;;;;;;11.98;93.22;99611.13;1731231;81;25790;-61
2021/08/27 01:50:25;;;;;;;18.80;11.55;;;;;;;12.00;93.18;99613.72;1763927;81;25715;-62
2021/08/27 01:52:53;;;;;;;14.45;11.45;;;;;;;12.01;93.28;99609.11;1763370;81;26376;-61
2021/08/27 01:55:20;;;;;;;17.90;12.18;;;;;;;12.04;93.43;99611.95;1763789;81;25740;-62
2021/08/27 01:57:48;;;;;;;22.62;12.50;;;;;;;12.06;93.43;99599.41;1763683;81;27958;-62
2021/08/27 02:00:17;;;;;;;21.05;11.78;;;;;;;12.06;93.33;99598.06;1763319;81;25759;-62
2021/08/27 02:02:45;;;;;;;18.12;11.33;;;;;;;12.09;93.43;99597.39;1763723;81;25783;-60
2021/08/27 02:05:13;;;;;;;15.98;11.40;;;;;;;12.09;93.40;99595.47;1731113;81;25870;-61
2021/08/27 02:07:40;;;;;;;21.07;11.75;;;;;;;12.10;93.47;99597.03;1763510;81;25790;-61
2021/08/27 02:10:08;;;;;;;16.73;11.53;;;;;;;12.13;93.34;99601.00;1763570;81;27341;-61
2021/08/27 02:12:34;;;;;;;22.07;12.40;;;;;;;12.12;93.33;99598.05;1763662;81;25709;-61
2021/08/27 02:15:02;;;;;;;17.92;11.73;;;;;;;12.14;93.35;99600.67;1763428;81;25826;-61
2021/08/27 02:17:30;;;;;;;18.57;11.75;;;;;;;12.15;93.33;99602.23;1763563;81;26349;-61
2021/08/27 02:19:58;;;;;;;16.25;12.10;;;;;;;12.15;93.22;99600.09;1763604;80;25763;-62
2021/08/27 02:22:32;;;;;;;19.80;12.40;;;;;;;12.17;93.32;99601.12;1731219;81;28127;-62
2021/08/27 02:25:13;;;;;;;23.25;11.73;;;;;;;12.18;93.35;99602.14;1763668;81;26869;-62
2021/08/27 02:27:41;;;;;;;18.45;12.05;;;;;;;12.19;93.29;99608.34;1763542;81;25782;-62
2021/08/27 02:30:10;;;;;;;19.80;11.60;;;;;;;12.20;93.30;99610.72;1762660;81;26420;-62
2021/08/27 02:32:38;;;;;;;17.83;11.53;;;;;;;12.21;93.20;99614.22;1763946;81;26326;-62
2021/08/27 02:35:07;;;;;;;17.05;12.33;;;;;;;12.22;93.29;99618.52;1763581;81;27399;-61
2021/08/27 02:37:36;;;;;;;;;;;;;;;12.22;93.24;99619.31;1766176;81;25807;-62
2021/08/27 02:40:03;;;;;;;20.25;12.45;;;;;;;12.22;93.26;99613.88;1763886;81;25712;-61
2021/08/27 02:42:31;;;;;;;17.87;12.65;;;;;;;12.21;93.31;99608.80;1763526;81;26133;-61
2021/08/27 02:45:05;;;;;;;17.77;13.32;;;;;;;12.21;93.35;99610.97;1756292;81;25805;-62
2021/08/27 02:47:32;;;;;;;21.37;14.23;;;;;;;12.22;93.38;99609.81;1763702;81;27331;-62
2021/08/27 02:49:59;;;;;;;22.32;13.88;;;;;;;12.23;93.42;99609.28;1763486;81;25979;-62
2021/08/27 02:53:02;;;;;;;17.52;13.30;;;;;;;12.23;93.43;99599.78;1763423;81;25800;-61
2021/08/27 02:55:37;;;;;;;19.25;14.18;;;;;;;12.25;93.62;99602.38;1763629;81;26429;-61
2021/08/27 02:58:16;;;;;;;22.02;13.20;;;;;;;12.27;93.63;99600.11;1762212;81;25792;-61
2021/08/27 03:01:12;;;;;;;21.37;13.83;;;;;;;12.28;93.70;99600.35;1763511;81;27370;-61
2021/08/27 03:03:43;;;;;;;22.22;13.25;;;;;;;12.31;93.78;99596.19;1763560;81;25700;-61
2021/08/27 03:06:17;;;;;;;21.42;13.65;;;;;;;12.31;93.64;99590.77;1763218;81;25763;-61
2021/08/27 03:08:51;;;;;;;19.65;14.03;;;;;;;12.33;93.77;99590.64;1763752;81;25711;-61
2021/08/27 03:11:27;;;;;;;21.02;13.70;;;;;;;12.37;93.76;99600.81;1763711;81;26337;-61
2021/08/27 03:14:02;;;;;;;18.85;11.90;;;;;;;12.38;93.67;99605.09;1762694;81;27355;-61
2021/08/27 03:16:29;;;;;;;18.40;13.03;;;;;;;12.39;93.64;99610.19;1763560;81;25683;-61
2021/08/27 03:19:07;;;;;;;20.45;12.78;;;;;;;12.41;93.67;99607.14;1731313;81;25720;-61
2021/08/27 03:21:43;;;;;;;18.62;12.60;;;;;;;12.42;93.68;99612.22;1763083;79;26608;-62
2021/08/27 03:24:18;;;;;;;19.67;13.45;;;;;;;12.43;93.76;99620.60;1764531;81;26362;-62
2021/08/27 03:26:49;;;;;;;20.25;13.95;;;;;;;12.44;93.73;99626.80;1764462;81;29541;-62
2021/08/27 03:29:19;;;;;;;25.43;16.57;;;;;;;12.45;93.57;99627.83;1764318;81;25751;-62
2021/08/27 03:31:46;;;;;;;;;;;;;;;12.45;93.49;99631.12;1767210;81;25708;-62
2021/08/27 03:34:12;;;;;;;27.45;16.93;;;;;;;12.44;93.46;99634.95;1761435;81;26277;-62
2021/08/27 03:36:40;;;;;;;28.15;18.62;;;;;;;12.42;93.59;99626.36;1764451;81;25815;-62
2021/08/27 03:39:06;;;;;;;28.00;16.35;;;;;;;12.43;93.62;99632.80;1764583;81;27371;-62
2021/08/27 03:41:37;;;;;;;26.45;17.37;;;;;;;12.43;93.73;99632.80;1764422;81;25364;-62
2021/08/27 03:44:05;;;;;;;27.15;17.07;;;;;;;12.44;93.80;99634.38;1764415;81;26366;-62
2021/08/27 03:46:32;;;;;;;40.52;18.82;;;;;;;12.45;93.81;99625.12;1764520;81;26372;-62
2021/08/27 03:48:59;;;;;;;28.02;18.65;;;;;;;12.46;93.91;99617.77;1764598;81;25754;-62
2021/08/27 03:51:27;;;;;;;30.85;16.67;;;;;;;12.47;93.88;99620.72;1764391;81;27292;-62
2021/08/27 03:53:55;;;;;;;30.82;18.15;;;;;;;12.48;93.99;99624.99;1764448;81;25829;-62
2021/08/27 03:56:25;;;;;;;35.98;20.40;;;;;;;12.50;94.00;99628.96;1764749;81;26412;-62
2021/08/27 03:58:52;;;;;;;33.53;19.42;;;;;;;12.51;93.94;99623.78;1763874;81;25707;-61
2021/08/27 04:01:22;;;;;;;34.85;19.67;;;;;;;12.51;93.94;99625.13;1764564;81;25826;-61
2021/08/27 04:03:49;;;;;;;31.80;20.10;;;;;;;12.54;94.04;99623.66;1764774;81;27318;-62
2021/08/27 04:06:15;;;;;;;34.20;19.80;;;;;;;12.56;94.16;99621.39;1736133;81;27069;-61
2021/08/27 04:08:43;;;;;;;38.38;21.02;;;;;;;12.59;94.14;99619.94;1764480;81;25751;-62
2021/08/27 04:11:15;;;;;;;31.70;20.15;;;;;;;12.61;94.10;99613.59;1764468;81;25815;-62
2021/08/27 04:13:41;;;;;;;36.15;21.40;;;;;;;12.62;94.14;99620.62;1764103;81;26389;-62
2021/08/27 04:16:08;;;;;;;32.88;20.77;;;;;;;12.64;94.24;99619.70;1764431;81;27296;-62
2021/08/27 04:18:35;;;;;;;34.45;20.25;;;;;;;12.66;94.13;99629.65;1764427;81;25732;-62
2021/08/27 04:21:03;;;;;;;38.90;20.08;;;;;;;12.66;94.14;99634.50;1764095;79;25673;-61
2021/08/27 04:23:30;;;;;;;34.95;19.98;;;;;;;12.69;94.38;99631.69;1763686;81;25882;-62
2021/08/27 04:25:57;;;;;;;36.33;20.23;;;;;;;12.72;94.37;99633.73;1731398;81;25815;-62
2021/08/27 04:28:23;;;;;;;37.33;20.80;;;;;;;12.72;94.23;99637.80;1763434;81;27377;-62
2021/08/27 04:30:50;;;;;;;30.75;19.57;;;;;;;12.73;94.16;99637.23;1763578;81;25840;-61
2021/08/27 04:33:17;;;;;;;38.83;21.10;;;;;;;12.77;94.48;99635.41;1763650;81;25778;-61
2021/08/27 04:35:43;;;;;;;36.05;20.20;;;;;;;12.80;94.51;99638.80;1763513;81;26246;-61
2021/08/27 04:38:09;;;;;;;34.00;21.05;;;;;;;12.81;94.33;99640.40;1763628;81;25810;-61
2021/08/27 04:40:36;;;;;;;38.23;21.97;;;;;;;12.82;94.40;99631.92;1763579;81;27619;-61
2021/08/27 04:43:02;;;;;;;33.90;21.10;;;;;;;12.84;94.45;99643.22;1763408;81;25907;-61
2021/08/27 04:45:29;;;;;;;40.17;21.60;;;;;;;12.88;94.59;99652.83;1763700;81;26404;-61
2021/08/27 04:47:55;;;;;;;38.33;20.95;;;;;;;12.89;94.47;99655.20;1763695;81;26423;-61
2021/08/27 04:50:21;;;;;;;40.85;22.00;;;;;;;12.91;94.37;99653.52;1763559;81;25684;-61
2021/08/27 04:52:48;;;;;;;45.05;21.80;;;;;;;12.92;94.47;99652.94;1763591;81;27286;-62
2021/08/27 04:55:14;;;;;;;50.03;22.27;;;;;;;12.95;94.75;99648.98;1763489;81;25664;-61
2021/08/27 04:57:41;;;;;;;41.42;20.92;;;;;;;12.99;94.98;99652.61;1731165;81;26440;-61
2021/08/27 05:00:10;;;;;;;41.02;22.93;;;;;;;13.02;94.84;99653.84;1763496;81;25764;-61
2021/08/27 05:02:38;;;;;;;45.17;22.98;;;;;;;13.04;94.65;99649.66;1763740;81;25764;-61
2021/08/27 05:05:06;;;;;;;44.63;23.12;;;;;;;13.09;95.00;99654.05;1763499;81;27315;-61
2021/08/27 05:07:33;;;;;;;42.38;23.12;;;;;;;13.14;95.48;99657.11;1763548;81;25777;-61
2021/08/27 05:10:00;;;;;;;37.58;22.55;;;;;;;13.20;95.43;99663.90;1763534;81;26088;-61
2021/08/27 05:12:27;;;;;;;41.10;22.02;;;;;;;13.25;95.36;99663.66;1763391;81;27826;-61
2021/08/27 05:14:54;;;;;;;43.80;22.82;;;;;;;13.27;95.08;99674.97;1763610;81;25699;-61
2021/08/27 05:17:20;;;;;;;46.42;24.92;;;;;;;13.30;95.02;99673.48;1763694;81;29415;-61
2021/08/27 05:19:47;;;;;;;44.40;24.47;;;;;;;13.32;94.87;99684.27;1763391;81;26515;-61
2021/08/27 05:22:13;;;;;;;50.55;25.97;;;;;;;13.32;94.68;99675.34;1758452;80;25731;-61
2021/08/27 05:24:40;;;;;;;48.08;24.23;;;;;;;13.32;94.59;99679.42;1763673;81;25751;-61
2021/08/27 05:27:06;;;;;;;47.98;24.65;;;;;;;13.34;94.76;99686.08;1763440;81;25884;-61
2021/08/27 05:29:32;;;;;;;54.33;25.15;;;;;;;13.37;94.79;99696.27;1763631;81;27331;-62
2021/08/27 05:31:59;;;;;;;50.80;27.02;;;;;;;13.39;94.89;99680.98;1763549;81;25758;-62
2021/08/27 05:34:26;;;;;;;53.92;27.60;;;;;;;13.41;95.09;99689.00;1763460;81;26363;-61
2021/08/27 05:36:52;;;;;;;52.08;28.05;;;;;;;13.45;95.04;99689.13;1763596;81;25771;-61
2021/08/27 05:39:19;;;;;;;57.88;27.82;;;;;;;13.50;95.20;99690.25;1763660;81;25739;-61
2021/08/27 05:41:45;;;;;;;49.42;25.52;;;;;;;13.55;95.32;99694.09;1735424;81;27350;-61
2021/08/27 05:44:12;;;;;;;48.58;25.40;;;;;;;13.57;95.08;99691.81;1763652;81;25869;-62
2021/08/27 05:46:38;;;;;;;52.83;26.57;;;;;;;13.57;94.53;99691.00;1763573;81;25910;-61
2021/08/27 05:49:05;;;;;;;52.85;26.65;;;;;;;13.57;94.58;99685.56;1763408;81;26379;-61
2021/08/27 05:51:31;;;;;;;53.10;26.20;;;;;;;13.58;94.33;99694.73;1763689;81;25799;-61
2021/08/27 05:53:58;;;;;;;49.65;26.33;;;;;;;13.58;94.37;99685.80;1763545;81;27317;-61
2021/08/27 05:56:25;;;;;;;46.85;26.27;;;;;;;13.58;94.37;99698.81;1763336;81;26394;-62
2021/08/27 05:58:51;;;;;;;47.43;24.37;;;;;;;13.62;94.72;99696.20;1763409;81;25926;-61
2021/08/27 06:01:17;;;;;;;43.35;24.87;;;;;;;13.64;94.55;99691.23;1743833;81;26770;-61
2021/08/27 06:03:44;;;;;;;42.43;24.52;;;;;;;13.65;94.52;99692.80;1756139;81;25745;-61
2021/08/27 06:06:10;;;;;;;48.00;26.10;;;;;;;13.67;94.54;99692.45;1780785;80;27224;-61
2021/08/27 06:08:38;;;;;;;46.20;25.37;;;;;;;13.70;94.69;99691.20;1736604;81;25893;-61
2021/08/27 06:11:05;;;;;;;43.95;23.65;;;;;;;13.71;94.21;99691.44;1763340;80;25703;-62
2021/08/27 06:13:31;;;;;;;45.03;24.43;;;;;;;13.71;94.15;99694.73;1745926;81;25925;-61
2021/08/27 06:15:58;;;;;;;42.53;23.70;;;;;;;13.72;94.03;99698.43;1747341;81;25788;-61
2021/08/27 06:18:24;;;;;;;43.52;24.55;;;;;;;13.71;93.82;99705.59;1743793;81;27336;-62
2021/08/27 06:20:51;;;;;;;40.03;22.50;;;;;;;13.71;93.71;99706.38;1737741;81;26460;-61
2021/08/27 06:23:19;;;;;;;40.60;24.00;;;;;;;13.69;93.66;99703.22;1758927;80;25711;-61
2021/08/27 06:25:45;;;;;;;34.23;21.27;;;;;;;13.71;93.65;99711.81;1754693;80;25818;-62
2021/08/27 06:28:12;;;;;;;41.58;23.12;;;;;;;13.71;93.78;99711.03;1756159;80;25743;-61
2021/08/27 06:30:40;;;;;;;33.58;20.45;;;;;;;13.71;93.51;99716.47;1759504;80;27334;-61
2021/08/27 06:33:06;;;;;;;35.98;21.52;;;;;;;13.67;93.29;99720.98;1779712;80;25747;-61
2021/08/27 06:35:33;;;;;;;45.33;23.92;;;;;;;13.71;93.62;99729.48;1770993;79;25694;-61
2021/08/27 06:40:47;;;;;;;42.58;23.47;;;;;;;13.77;94.04;99719.97;1774446;80;25752;-61
2021/08/27 06:43:14;;;;;;;40.50;23.65;;;;;;;13.83;94.30;99725.94;1781180;80;27481;-61
2021/08/27 06:45:41;;;;;;;45.05;25.32;;;;;;;13.88;94.68;99720.26;1753629;80;25751;-61
2021/08/27 06:48:07;;;;;;;47.83;26.00;;;;;;;13.96;95.13;99724.77;1781893;80;25763;-63
2021/08/27 06:50:37;;;;;;;44.77;25.48;;;;;;;14.03;95.02;99722.01;1780109;80;25835;-61
2021/08/27 06:53:02;;;;;;;46.63;27.00;;;;;;;14.10;95.04;99730.39;1779665;80;25700;-61
2021/08/27 06:55:28;;;;;;;54.38;27.70;;;;;;;14.14;94.50;99735.34;1778104;80;28395;-61
2021/08/27 06:57:54;;;;;;;42.38;24.27;;;;;;;14.14;94.10;99736.70;1780013;80;25759;-61
2021/08/27 07:00:21;;;;;;;47.73;25.80;;;;;;;14.14;93.61;99735.34;1753070;80;25809;-61
2021/08/27 07:02:47;;;;;;;44.13;24.85;;;;;;;14.11;93.16;99740.11;1779676;80;25788;-61
2021/08/27 07:05:15;;;;;;;45.25;25.05;;;;;;;14.10;93.41;99742.05;1779376;80;26406;-61
2021/08/27 07:07:42;;;;;;;46.77;25.50;;;;;;;14.10;93.17;99741.27;1779397;80;29502;-61
2021/08/27 07:10:09;;;;;;;49.60;25.97;;;;;;;14.10;93.34;99742.05;1779382;80;27137;-62
2021/08/27 07:12:36;;;;;;;51.30;27.20;;;;;;;14.16;93.97;99743.36;1767026;80;25749;-61
2021/08/27 07:15:03;;;;;;;54.53;28.85;;;;;;;14.18;93.86;99747.91;1754370;80;25671;-61
2021/08/27 07:17:30;;;;;;;48.38;27.95;;;;;;;14.27;94.30;99751.03;1761772;79;25833;-61
2021/08/27 07:19:56;;;;;;;49.03;27.80;;;;;;;14.27;93.65;99764.08;1755095;80;26528;-61
2021/08/27 07:22:23;;;;;;;47.83;26.42;;;;;;;14.30;93.71;99765.30;1752321;80;26443;-61
2021/08/27 07:24:49;;;;;;;45.88;25.20;;;;;;;14.32;93.42;99771.18;1744727;81;25710;-61
2021/08/27 07:27:16;;;;;;;45.17;25.75;;;;;;;14.30;92.93;99767.47;1742467;81;25805;-60
2021/08/27 07:29:42;;;;;;;45.10;26.10;;;;;;;14.29;92.72;99766.45;1747946;81;26419;-61
2021/08/27 07:32:11;;;;;;;49.98;25.82;;;;;;;14.32;92.88;99772.54;1746290;81;27578;-61
2021/08/27 07:34:39;;;;;;;50.30;27.25;;;;;;;14.33;92.89;99776.28;1740597;80;25743;-61
2021/08/27 07:37:07;;;;;;;48.78;27.05;;;;;;;14.29;92.63;99775.41;1764979;80;25866;-62
2021/08/27 07:39:35;;;;;;;51.83;26.77;;;;;;;14.28;92.33;99775.74;1762100;80;26452;-62
2021/08/27 07:42:01;;;;;;;52.17;27.52;;;;;;;14.26;92.36;99771.22;1764791;80;25850;-61
2021/08/27 07:44:28;;;;;;;52.50;28.47;;;;;;;14.22;91.89;99771.13;1751004;81;27332;-61
2021/08/27 07:46:54;;;;;;;52.60;28.50;;;;;;;14.20;92.19;99766.03;1762683;80;25716;-61
2021/08/27 07:49:20;;;;;;;55.45;30.12;;;;;;;14.23;92.77;99771.91;1761834;80;25828;-60
2021/08/27 07:51:47;;;;;;;51.95;29.48;;;;;;;14.28;92.89;99769.73;1763490;80;26314;-61
2021/08/27 07:54:14;;;;;;;51.37;29.23;;;;;;;14.33;93.15;99774.92;1759308;80;25692;-61
2021/08/27 07:56:41;;;;;;;48.65;27.58;;;;;;;14.36;93.16;99775.59;1759386;81;27318;-61
2021/08/27 07:59:08;;;;;;;47.60;27.17;;;;;;;14.42;93.11;99772.63;1755761;81;25862;-61
2021/08/27 08:01:35;;;;;;;45.85;28.15;;;;;;;14.50;93.47;99776.55;1743128;81;25713;-61
2021/08/27 08:04:02;;;;;;;51.35;28.83;;;;;;;14.54;93.15;99780.17;1745456;81;25865;-62
2021/08/27 08:06:35;;;;;;;45.50;27.27;;;;;;;14.57;93.15;99787.64;1763342;81;25660;-61
2021/08/27 08:09:05;;;;;;;47.67;27.50;;;;;;;14.63;93.35;99791.50;1755988;81;27328;-61
2021/08/27 08:11:31;;;;;;;45.25;25.92;;;;;;;14.70;93.50;99796.55;1748568;81;25723;-61
2021/08/27 08:13:58;;;;;;;45.10;27.30;;;;;;;14.76;93.21;99805.24;1754110;81;25709;-61
2021/08/27 08:16:24;;;;;;;46.28;26.30;;;;;;;14.79;93.00;99805.91;1763821;81;26340;-62
2021/08/27 08:18:52;;;;;;;40.08;24.82;;;;;;;14.79;92.17;99807.85;1764239;81;25818;-61
2021/08/27 08:21:22;;;;;;;40.83;25.00;;;;;;;14.75;91.86;99810.48;1764154;81;27600;-61
2021/08/27 08:23:46;;;;;;;43.63;27.03;;;;;;;14.71;91.29;99812.30;1758806;81;25678;-61
2021/08/27 08:26:13;;;;;;;41.58;26.30;;;;;;;14.66;91.15;99810.64;1757972;81;25731;-61
2021/08/27 08:28:39;;;;;;;40.78;25.72;;;;;;;14.62;91.11;99811.10;1757780;81;25711;-61
2021/08/27 08:31:05;;;;;;;42.40;25.50;;;;;;;14.59;90.92;99812.38;1757833;81;25701;-61
2021/08/27 08:33:32;;;;;;;43.80;25.97;;;;;;;14.52;90.91;99811.02;1729893;81;27298;-62
2021/08/27 08:35:58;;;;;;;42.10;26.68;;;;;;;14.49;91.02;99818.52;1757869;81;26352;-61
2021/08/27 08:38:25;;;;;;;40.63;25.77;;;;;;;14.45;91.04;99820.33;1757700;81;26451;-61
2021/08/27 08:40:51;;;;;;;44.27;26.25;;;;;;;14.44;91.38;99826.11;1757963;81;25829;-61
2021/08/27 08:43:18;;;;;;;44.35;25.80;;;;;;;14.42;91.31;99825.67;1758036;81;25817;-61
2021/08/27 08:45:50;;;;;;;43.05;25.90;;;;;;;14.41;91.33;99826.25;1757725;81;27296;-62
2021/08/27 08:48:21;;;;;;;44.93;26.68;;;;;;;14.39;91.51;99821.16;1757875;81;25785;-61
2021/08/27 08:50:49;;;;;;;41.68;26.05;;;;;;;14.43;92.06;99829.41;1756440;80;25918;-61
2021/08/27 08:53:21;;;;;;;41.88;26.87;;;;;;;14.39;91.28;99826.59;1763407;81;26290;-61
2021/08/27 08:55:46;;;;;;;42.17;25.77;;;;;;;14.41;91.71;99822.75;1763454;81;25673;-61
2021/08/27 08:58:12;;;;;;;46.28;26.40;;;;;;;14.38;91.69;99833.74;1763612;81;27393;-61
2021/08/27 09:00:39;;;;;;;40.88;25.32;;;;;;;14.37;91.37;99824.80;1760650;81;26227;-61
2021/08/27 09:03:06;;;;;;;43.85;26.07;;;;;;;14.39;91.45;99823.88;1765184;81;25671;-61
2021/08/27 09:05:33;;;;;;;40.67;24.87;;;;;;;14.51;92.25;99819.53;1765096;81;26195;-62
2021/08/27 09:08:00;;;;;;;40.90;25.45;;;;;;;14.61;92.57;99831.31;1763524;81;25697;-61
2021/08/27 09:10:26;;;;;;;37.40;24.12;;;;;;;14.77;93.33;99828.61;1763658;81;27985;-61
2021/08/27 09:12:58;;;;;;;39.67;25.52;;;;;;;14.86;92.48;99829.23;1763641;81;27218;-61
2021/08/27 09:15:25;;;;;;;36.65;23.42;;;;;;;14.92;91.82;99825.13;1761983;81;25760;-61
2021/08/27 09:17:53;;;;;;;33.53;23.47;;;;;;;15.08;92.75;99822.41;1763645;81;25872;-61
2021/08/27 09:20:28;;;;;;;37.03;25.10;;;;;;;15.24;92.87;99832.55;1763748;81;25724;-61
2021/08/27 09:23:01;;;;;;;31.95;21.45;;;;;;;15.39;92.58;99821.41;1764224;81;27317;-62
2021/08/27 09:25:31;;;;;;;32.67;22.00;;;;;;;15.57;91.97;99815.02;1765519;81;25567;-62
2021/08/27 09:28:13;;;;;;;29.70;20.00;;;;;;;15.72;91.63;99814.20;1765542;81;25661;-62
2021/08/27 09:30:56;;;;;;;25.25;19.20;;;;;;;15.87;91.11;99813.98;1765368;81;26795;-60
2021/08/27 09:33:32;;;;;;;28.40;20.08;;;;;;;16.00;89.85;99820.88;1765722;81;25590;-59
2021/08/27 09:36:07;;;;;;;27.32;19.70;;;;;;;15.93;88.90;99826.76;1765726;79;28114;-60
2021/08/27 09:38:38;;;;;;;30.02;22.15;;;;;;;15.97;88.67;99826.25;1765359;81;25701;-60
2021/08/27 09:41:11;;;;;;;31.15;21.35;;;;;;;16.08;89.81;99831.96;1755981;79;25735;-60
2021/08/27 09:43:44;;;;;;;29.65;21.73;;;;;;;16.28;90.03;99840.37;1758974;79;26626;-60
2021/08/27 09:46:36;;;;;;;26.95;19.95;;;;;;;16.41;89.41;99845.10;1754098;81;25752;-61
2021/08/27 09:49:31;;;;;;;30.90;21.52;;;;;;;16.48;88.75;99848.00;1760259;81;28013;-61
2021/08/27 09:52:00;;;;;;;30.77;21.97;;;;;;;16.57;88.73;99846.41;1763752;81;25722;-62
2021/08/27 09:54:38;;;;;;;33.30;23.90;;;;;;;16.69;88.41;99847.62;1754814;81;25773;-61
2021/08/27 09:57:07;;;;;;;29.92;20.85;;;;;;;16.80;88.54;99845.89;1764348;81;25746;-61
2021/08/27 09:59:43;;;;;;;31.77;24.05;;;;;;;16.93;87.79;99844.38;1765170;81;25717;-61
2021/08/27 10:02:13;;;;;;;32.23;22.02;;;;;;;17.07;87.62;99841.11;1764998;81;27560;-61
2021/08/27 10:04:57;;;;;;;26.65;19.87;;;;;;;17.38;88.51;99833.81;1765003;81;27168;-61
2021/08/27 10:07:37;;;;;;;25.12;19.42;;;;;;;17.88;88.34;99827.18;1764878;81;25760;-60
2021/08/27 10:10:11;;;;;;;29.55;22.30;;;;;;;18.14;86.50;99836.52;1764943;81;25692;-60
2021/08/27 10:12:43;;;;;;;28.65;20.88;;;;;;;18.29;85.12;99831.42;1765078;81;25779;-70
2021/08/27 10:15:11;;;;;;;30.82;23.07;;;;;;;18.23;83.07;99837.59;1764953;81;27382;-67
2021/08/27 10:17:40;;;;;;;35.45;24.82;;;;;;;18.11;82.37;99850.34;1765234;81;25629;-69
2021/08/27 10:20:10;;;;;;;29.67;22.93;;;;;;;18.05;82.25;99852.44;1765700;81;25670;-68
2021/08/27 10:22:41;;;;;;;35.90;24.02;;;;;;;18.00;82.08;99848.06;1765244;81;25616;-67
2021/08/27 10:25:11;;;;;;;33.05;25.00;;;;;;;18.01;82.60;99842.78;1764631;81;25681;-69
2021/08/27 10:27:38;;;;;;;32.08;23.98;;;;;;;18.04;82.53;99845.37;1764219;81;27878;-67
2021/08/27 10:30:07;;;;;;;31.23;23.75;;;;;;;18.15;83.19;99844.13;1762442;79;25907;-67
2021/08/27 10:32:44;;;;;;;29.45;22.62;;;;;;;18.33;82.77;99840.27;1768066;80;25579;-68
2021/08/27 10:35:28;;;;;;;33.53;24.80;;;;;;;18.34;81.85;99851.41;1764421;80;26469;-68
2021/08/27 10:37:55;;;;;;;29.40;21.57;;;;;;;18.40;81.74;99845.83;1763084;81;25812;-68
2021/08/27 10:40:29;;;;;;;32.60;23.60;;;;;;;18.49;81.63;99842.23;1763442;81;27372;-71
2021/08/27 10:42:58;;;;;;;30.75;20.95;;;;;;;18.68;81.83;99845.38;1763255;81;25707;-69
2021/08/27 10:45:47;;;;;;;28.00;20.63;;;;;;;18.94;82.22;99836.86;1764952;81;25861;-67
2021/08/27 10:48:24;;;;;;;27.15;20.40;;;;;;;19.38;81.94;99834.11;1764573;81;25939;-69
2021/08/27 10:50:53;;;;;;;26.05;20.43;;;;;;;19.69;81.05;99831.20;1764423;81;25537;-68
2021/08/27 10:53:29;;;;;;;;;;;;;;;20.13;81.71;99825.59;1767430;79;27399;-67
2021/08/27 10:55:55;;;;;;;24.63;19.12;;;;;;;20.66;80.16;99819.34;1764608;81;25587;-68
2021/08/27 10:58:48;;;;;;;20.25;17.10;;;;;;;21.30;79.31;99823.33;1764759;81;25581;-67
2021/08/27 11:01:34;;;;;;;18.80;16.57;;;;;;;21.91;78.49;99829.55;1759041;79;25615;-69
2021/08/27 11:04:23;;;;;;;20.10;17.40;;;;;;;22.69;77.70;99840.09;1762425;79;25577;-67
2021/08/27 11:06:58;;;;;;;21.25;16.82;;;;;;;23.43;75.43;99848.88;1762316;79;28586;-68
2021/08/27 11:09:28;;;;;;;17.48;14.47;;;;;;;24.09;73.08;99849.83;1760481;81;25511;-68
2021/08/27 11:12:22;;;;;;;16.20;14.18;;;;;;;24.32;70.34;99848.56;1758913;81;25518;-68
2021/08/27 11:14:53;;;;;;;16.57;14.45;;;;;;;24.44;69.45;99851.38;1758315;81;25880;-68
2021/08/27 11:17:20;;;;;;;15.55;13.95;;;;;;;24.80;68.75;99844.01;1775873;79;25695;-68
2021/08/27 11:19:59;;;;;;;15.35;13.75;;;;;;;25.39;67.93;99849.66;1763484;81;27353;-69
2021/08/27 11:22:27;;;;;;;;;;;;;;;25.73;65.70;99843.91;1767311;81;25583;-68
2021/08/27 11:25:10;;;;;;;18.87;13.90;;;;;;;26.21;63.97;99857.69;1765117;81;25619;-68
2021/08/27 11:27:38;;;;;;;16.75;13.50;;;;;;;26.73;63.86;99854.24;1764973;81;25596;-67
2021/08/27 11:30:31;;;;;;;14.55;12.88;;;;;;;26.99;61.12;99853.06;1764796;81;25591;-68
2021/08/27 11:32:58;;;;;;;13.78;11.93;;;;;;;27.08;59.91;99846.30;1763718;81;27324;-65